createdAt,value
2019-05-29T00:00:15.691Z,458.20
2019-05-29T00:01:19.799Z,459.49
2019-05-29T00:02:16.683Z,462.58
2019-05-29T00:03:15.660Z,463.89
2019-05-29T00:04:15.645Z,463.48
2019-05-29T00:05:15.644Z,472.43
2019-05-29T00:06:15.644Z,464.92
2019-05-29T00:07:15.613Z,461.40
2019-05-29T00:08:15.611Z,456.65
2019-05-29T00:09:15.594Z,456.88
2019-05-29T00:10:15.574Z,452.61
2019-05-29T00:11:15.587Z,455.96
2019-05-29T00:12:19.568Z,458.51
2019-05-29T00:13:16.562Z,460.71
2019-05-29T00:14:22.603Z,457.05
2019-05-29T00:15:16.528Z,457.01
2019-05-29T00:16:15.541Z,458.12
2019-05-29T00:17:15.511Z,476.65
2019-05-29T00:18:15.487Z,481.65
2019-05-29T00:19:15.491Z,457.72
2019-05-29T00:20:15.467Z,477.48
2019-05-29T00:21:15.479Z,480.19
2019-05-29T00:22:15.443Z,482.23
2019-05-29T00:23:15.447Z,455.41
2019-05-29T00:24:15.436Z,479.99
2019-05-29T00:25:16.599Z,479.79
2019-05-29T00:26:16.550Z,478.84
2019-05-29T00:27:15.632Z,478.38
2019-05-29T00:28:15.384Z,458.05
2019-05-29T00:29:15.382Z,460.48
2019-05-29T00:30:15.359Z,480.99
2019-05-29T00:31:15.371Z,463.84
2019-05-29T00:32:15.331Z,488.07
2019-05-29T00:33:15.319Z,479.42
2019-05-29T00:34:15.319Z,499.71
2019-05-29T00:35:16.377Z,477.94
2019-05-29T00:36:16.438Z,478.33
2019-05-29T00:37:15.602Z,476.96
2019-05-29T00:38:15.261Z,494.52
2019-05-29T00:39:15.246Z,466.85
2019-05-29T00:40:15.261Z,486.04
2019-05-29T00:41:15.267Z,482.88
2019-05-29T00:42:16.006Z,480.87
2019-05-29T00:43:15.541Z,460.60
2019-05-29T00:44:15.445Z,483.21
2019-05-29T00:45:15.629Z,482.69
2019-05-29T00:46:15.579Z,483.99
2019-05-29T00:47:15.682Z,477.87
2019-05-29T00:48:16.034Z,479.52
2019-05-29T00:49:15.998Z,475.97
2019-05-29T00:50:16.134Z,489.79
2019-05-29T00:51:15.173Z,465.19
2019-05-29T00:52:16.516Z,488.67
2019-05-29T00:53:16.287Z,494.29
2019-05-29T00:54:15.097Z,493.28
2019-05-29T00:55:15.072Z,475.68
2019-05-29T00:56:15.057Z,493.83
2019-05-29T00:57:15.348Z,497.30
2019-05-29T00:58:15.047Z,496.54
2019-05-29T00:59:15.143Z,480.20
2019-05-29T01:00:15.253Z,499.72
2019-05-29T01:01:15.488Z,497.29
2019-05-29T01:02:15.897Z,503.56
2019-05-29T01:03:15.874Z,479.87
2019-05-29T01:04:15.732Z,481.52
2019-05-29T01:05:16.142Z,474.46
2019-05-29T01:06:15.995Z,473.31
2019-05-29T01:07:16.062Z,479.86
2019-05-29T01:08:14.944Z,484.52
2019-05-29T01:09:14.931Z,473.17
2019-05-29T01:10:14.913Z,493.00
2019-05-29T01:11:14.925Z,496.40
2019-05-29T01:12:14.925Z,490.71
2019-05-29T01:13:15.173Z,500.99
2019-05-29T01:14:15.125Z,471.83
2019-05-29T01:15:15.437Z,498.60
2019-05-29T01:16:15.381Z,497.05
2019-05-29T01:17:15.568Z,501.36
2019-05-29T01:18:15.767Z,500.14
2019-05-29T01:19:15.911Z,496.40
2019-05-29T01:20:15.899Z,499.97
2019-05-29T01:21:15.888Z,472.94
2019-05-29T01:22:14.792Z,491.25
2019-05-29T01:23:14.772Z,472.88
2019-05-29T01:24:14.758Z,488.76
2019-05-29T01:25:14.739Z,486.84
2019-05-29T01:26:14.735Z,483.10
2019-05-29T01:27:15.176Z,464.26
2019-05-29T01:28:14.741Z,488.58
2019-05-29T01:29:14.954Z,465.74
2019-05-29T01:30:15.102Z,488.12
2019-05-29T01:31:15.193Z,473.65
2019-05-29T01:32:15.512Z,474.71
2019-05-29T01:33:18.568Z,468.86
2019-05-29T01:34:15.708Z,488.66
2019-05-29T01:35:15.718Z,488.76
2019-05-29T01:36:15.862Z,466.62
2019-05-29T01:37:14.701Z,470.40
2019-05-29T01:38:15.173Z,467.61
2019-05-29T01:39:15.113Z,471.46
2019-05-29T01:40:21.165Z,497.17
2019-05-29T01:41:15.562Z,490.45
2019-05-29T01:42:15.200Z,487.55
2019-05-29T01:43:15.324Z,483.60
2019-05-29T01:44:15.325Z,485.13
2019-05-29T01:45:15.411Z,482.14
2019-05-29T01:46:15.210Z,483.83
2019-05-29T01:47:15.353Z,491.98
2019-05-29T01:48:15.396Z,493.18
2019-05-29T01:49:16.063Z,487.29
2019-05-29T01:50:15.564Z,483.35
2019-05-29T01:51:15.432Z,470.15
2019-05-29T01:52:15.499Z,490.91
2019-05-29T01:53:15.496Z,471.05
2019-05-29T01:54:15.476Z,487.82
2019-05-29T01:55:15.620Z,490.78
2019-05-29T01:56:15.478Z,486.13
2019-05-29T01:57:15.679Z,464.16
2019-05-29T01:58:15.556Z,485.43
2019-05-29T01:59:15.621Z,468.68
2019-05-29T02:00:15.659Z,485.41
2019-05-29T02:01:15.756Z,466.93
2019-05-29T02:02:15.681Z,483.50
2019-05-29T02:03:15.668Z,461.08
2019-05-29T02:04:15.739Z,495.87
2019-05-29T02:05:14.288Z,477.11
2019-05-29T02:06:14.299Z,469.38
2019-05-29T02:07:14.315Z,483.97
2019-05-29T02:08:14.272Z,478.96
2019-05-29T02:09:14.252Z,476.60
2019-05-29T02:10:14.272Z,499.04
2019-05-29T02:11:14.991Z,501.09
2019-05-29T02:12:14.237Z,488.86
2019-05-29T02:13:15.179Z,494.95
2019-05-29T02:14:14.204Z,495.79
2019-05-29T02:15:24.844Z,486.48
2019-05-29T02:16:16.395Z,497.87
2019-05-29T02:17:15.493Z,503.95
2019-05-29T02:18:14.147Z,508.52
2019-05-29T02:19:14.167Z,485.88
2019-05-29T02:20:14.124Z,513.15
2019-05-29T02:21:14.129Z,514.75
2019-05-29T02:22:14.107Z,512.72
2019-05-29T02:23:14.141Z,515.83
2019-05-29T02:24:14.088Z,513.19
2019-05-29T02:25:16.413Z,490.12
2019-05-29T02:26:14.066Z,511.91
2019-05-29T02:27:14.067Z,508.41
2019-05-29T02:28:14.089Z,481.69
2019-05-29T02:29:14.056Z,471.81
2019-05-29T02:30:14.028Z,495.75
2019-05-29T02:31:14.006Z,496.46
2019-05-29T02:32:13.999Z,503.32
2019-05-29T02:33:14.012Z,498.51
2019-05-29T02:34:13.980Z,476.83
2019-05-29T02:35:13.966Z,490.09
2019-05-29T02:36:13.956Z,467.31
2019-05-29T02:37:13.944Z,469.02
2019-05-29T02:38:13.958Z,467.79
2019-05-29T02:39:13.931Z,489.23
2019-05-29T02:40:13.918Z,464.58
2019-05-29T02:41:13.907Z,487.43
2019-05-29T02:42:13.887Z,494.51
2019-05-29T02:43:13.961Z,491.42
2019-05-29T02:44:13.866Z,484.30
2019-05-29T02:45:13.863Z,490.52
2019-05-29T02:46:13.854Z,494.36
2019-05-29T02:47:13.843Z,486.67
2019-05-29T02:48:13.848Z,468.97
2019-05-29T02:49:13.823Z,489.57
2019-05-29T02:50:13.804Z,486.64
2019-05-29T02:51:13.811Z,481.80
2019-05-29T02:52:13.794Z,461.34
2019-05-29T02:53:13.800Z,496.23
2019-05-29T02:54:13.757Z,491.38
2019-05-29T02:55:13.744Z,497.67
2019-05-29T02:56:13.738Z,471.37
2019-05-29T02:57:13.741Z,497.24
2019-05-29T02:58:13.735Z,508.17
2019-05-29T02:59:13.695Z,504.15
2019-05-29T03:00:13.696Z,469.91
2019-05-29T03:01:13.709Z,500.50
2019-05-29T03:02:13.662Z,477.27
2019-05-29T03:03:13.685Z,470.69
2019-05-29T03:04:13.648Z,470.32
2019-05-29T03:05:13.631Z,492.77
2019-05-29T03:06:13.644Z,471.77
2019-05-29T03:07:13.615Z,499.12
2019-05-29T03:08:13.623Z,468.76
2019-05-29T03:09:13.590Z,488.16
2019-05-29T03:10:13.645Z,466.40
2019-05-29T03:11:13.568Z,487.00
2019-05-29T03:12:13.570Z,489.43
2019-05-29T03:13:13.555Z,500.76
2019-05-29T03:14:13.542Z,497.94
2019-05-29T03:15:13.525Z,492.11
2019-05-29T03:16:13.534Z,466.80
2019-05-29T03:17:13.501Z,488.63
2019-05-29T03:18:13.508Z,489.20
2019-05-29T03:19:13.491Z,489.56
2019-05-29T03:20:13.465Z,485.90
2019-05-29T03:21:13.465Z,467.78
2019-05-29T03:22:13.455Z,472.35
2019-05-29T03:23:13.447Z,488.48
2019-05-29T03:24:13.421Z,486.69
2019-05-29T03:25:13.420Z,494.58
2019-05-29T03:26:13.400Z,494.71
2019-05-29T03:27:13.405Z,483.08
2019-05-29T03:28:13.406Z,462.82
2019-05-29T03:29:13.372Z,464.09
2019-05-29T03:30:13.350Z,464.96
2019-05-29T03:31:13.352Z,488.21
2019-05-29T03:32:14.631Z,466.29
2019-05-29T03:33:13.329Z,466.06
2019-05-29T03:34:13.333Z,467.21
2019-05-29T03:35:13.304Z,469.99
2019-05-29T03:36:13.297Z,470.54
2019-05-29T03:37:13.276Z,493.54
2019-05-29T03:38:13.264Z,472.90
2019-05-29T03:39:13.279Z,495.60
2019-05-29T03:40:13.257Z,478.15
2019-05-29T03:41:13.240Z,494.13
2019-05-29T03:42:13.251Z,471.59
2019-05-29T03:43:13.210Z,496.43
2019-05-29T03:44:13.228Z,493.57
2019-05-29T03:45:13.198Z,488.84
2019-05-29T03:46:30.169Z,458.20
2019-05-29T03:47:14.171Z,490.24
2019-05-29T03:48:13.151Z,470.10
2019-05-29T03:49:13.169Z,491.04
2019-05-29T03:50:15.645Z,462.10
2019-05-29T03:51:13.129Z,488.68
2019-05-29T03:52:13.122Z,479.75
2019-05-29T03:53:13.094Z,496.34
2019-05-29T03:54:13.135Z,474.89
2019-05-29T03:55:13.076Z,473.73
2019-05-29T03:56:13.081Z,467.09
2019-05-29T03:57:13.055Z,485.71
2019-05-29T03:58:13.045Z,467.91
2019-05-29T03:59:13.054Z,489.43
2019-05-29T04:00:13.041Z,466.51
2019-05-29T04:01:13.026Z,490.27
2019-05-29T04:02:12.999Z,479.13
2019-05-29T04:03:13.014Z,478.00
2019-05-29T04:04:13.002Z,470.44
2019-05-29T04:05:13.960Z,464.45
2019-05-29T04:06:12.969Z,466.98
2019-05-29T04:07:12.961Z,467.65
2019-05-29T04:08:12.935Z,466.34
2019-05-29T04:09:13.023Z,488.01
2019-05-29T04:10:12.936Z,464.81
2019-05-29T04:11:12.904Z,491.99
2019-05-29T04:12:12.887Z,488.18
2019-05-29T04:13:12.877Z,493.38
2019-05-29T04:14:12.905Z,491.91
2019-05-29T04:15:12.856Z,498.85
2019-05-29T04:16:12.856Z,496.61
2019-05-29T04:17:12.854Z,470.83
2019-05-29T04:18:12.827Z,491.17
2019-05-29T04:19:12.832Z,484.65
2019-05-29T04:20:12.809Z,465.54
2019-05-29T04:21:12.791Z,487.38
2019-05-29T04:22:12.775Z,493.49
2019-05-29T04:23:12.773Z,496.73
2019-05-29T04:24:12.789Z,465.96
2019-05-29T04:25:12.771Z,503.16
2019-05-29T04:26:12.733Z,499.31
2019-05-29T04:27:12.728Z,499.14
2019-05-29T04:28:12.724Z,472.19
2019-05-29T04:29:12.718Z,496.75
2019-05-29T04:30:12.749Z,467.77
2019-05-29T04:31:12.682Z,498.10
2019-05-29T04:32:12.693Z,497.89
2019-05-29T04:33:12.658Z,478.13
2019-05-29T04:34:12.648Z,476.33
2019-05-29T04:35:12.660Z,467.79
2019-05-29T04:36:12.656Z,461.21
2019-05-29T04:37:12.638Z,466.89
2019-05-29T04:38:12.599Z,480.01
2019-05-29T04:39:12.604Z,473.02
2019-05-29T04:40:12.623Z,477.29
2019-05-29T04:41:12.599Z,497.71
2019-05-29T04:42:12.566Z,503.57
2019-05-29T04:43:12.538Z,496.69
2019-05-29T04:44:12.535Z,500.37
2019-05-29T04:45:12.566Z,501.10
2019-05-29T04:46:12.525Z,495.91
2019-05-29T04:47:12.846Z,491.92
2019-05-29T04:48:12.493Z,470.55
2019-05-29T04:49:12.489Z,494.73
2019-05-29T04:50:12.491Z,466.26
2019-05-29T04:51:12.451Z,489.31
2019-05-29T04:52:12.503Z,491.13
2019-05-29T04:53:12.446Z,473.72
2019-05-29T04:54:12.428Z,469.86
2019-05-29T04:55:12.547Z,473.00
2019-05-29T04:56:12.423Z,507.54
2019-05-29T04:57:12.420Z,473.79
2019-05-29T04:58:12.379Z,471.66
2019-05-29T04:59:12.395Z,503.42
2019-05-29T05:00:12.381Z,482.06
2019-05-29T05:01:12.353Z,473.10
2019-05-29T05:02:12.346Z,479.39
2019-05-29T05:03:12.327Z,486.03
2019-05-29T05:04:12.312Z,486.02
2019-05-29T05:05:12.320Z,477.85
2019-05-29T05:06:12.295Z,477.85
2019-05-29T05:07:12.294Z,479.86
2019-05-29T05:08:12.265Z,473.43
2019-05-29T05:09:12.255Z,487.13
2019-05-29T05:10:12.272Z,468.03
2019-05-29T05:11:12.239Z,476.91
2019-05-29T05:12:12.220Z,491.81
2019-05-29T05:13:12.212Z,480.27
2019-05-29T05:14:12.209Z,478.99
2019-05-29T05:15:12.208Z,472.37
2019-05-29T05:16:12.187Z,474.83
2019-05-29T05:17:25.379Z,493.80
2019-05-29T05:18:13.151Z,474.42
2019-05-29T05:19:12.162Z,483.90
2019-05-29T05:20:12.159Z,485.28
2019-05-29T05:21:12.119Z,478.73
2019-05-29T05:22:12.116Z,506.63
2019-05-29T05:23:12.136Z,510.17
2019-05-29T05:24:12.088Z,489.23
2019-05-29T05:25:12.094Z,492.13
2019-05-29T05:26:12.068Z,494.13
2019-05-29T05:27:12.063Z,482.93
2019-05-29T05:28:12.046Z,488.61
2019-05-29T05:29:12.039Z,479.42
2019-05-29T05:30:12.041Z,487.03
2019-05-29T05:31:12.008Z,510.57
2019-05-29T05:32:12.002Z,488.36
2019-05-29T05:33:12.012Z,502.78
2019-05-29T05:34:11.980Z,469.12
2019-05-29T05:35:14.313Z,481.70
2019-05-29T05:36:11.978Z,489.71
2019-05-29T05:37:11.938Z,495.08
2019-05-29T05:38:11.942Z,487.63
2019-05-29T05:39:11.932Z,490.34
2019-05-29T05:40:11.939Z,487.07
2019-05-29T05:41:11.930Z,493.45
2019-05-29T05:42:11.893Z,490.08
2019-05-29T05:43:23.613Z,516.37
2019-05-29T05:44:12.872Z,495.51
2019-05-29T05:45:11.864Z,517.94
2019-05-29T05:46:11.885Z,487.49
2019-05-29T05:47:11.835Z,514.04
2019-05-29T05:48:11.817Z,509.48
2019-05-29T05:49:11.807Z,482.82
2019-05-29T05:50:11.800Z,501.92
2019-05-29T05:51:11.807Z,503.60
2019-05-29T05:52:11.791Z,514.62
2019-05-29T05:53:11.772Z,519.04
2019-05-29T05:54:11.766Z,496.27
2019-05-29T05:55:11.756Z,511.62
2019-05-29T05:56:11.923Z,506.23
2019-05-29T05:57:11.733Z,483.28
2019-05-29T05:58:11.717Z,512.84
2019-05-29T05:59:11.700Z,500.34
2019-05-29T06:00:11.688Z,489.07
2019-05-29T06:01:11.700Z,496.34
2019-05-29T06:02:11.669Z,491.38
2019-05-29T06:03:11.658Z,518.80
2019-05-29T06:04:11.644Z,484.33
2019-05-29T06:05:11.637Z,488.92
2019-05-29T06:06:11.640Z,488.51
2019-05-29T06:07:11.650Z,511.96
2019-05-29T06:08:11.607Z,492.47
2019-05-29T06:09:11.587Z,492.28
2019-05-29T06:10:11.582Z,490.50
2019-05-29T06:11:11.583Z,510.90
2019-05-29T06:12:11.555Z,511.76
2019-05-29T06:13:11.545Z,506.44
2019-05-29T06:14:11.545Z,510.52
2019-05-29T06:15:11.522Z,516.30
2019-05-29T06:16:11.530Z,515.34
2019-05-29T06:17:11.504Z,504.63
2019-05-29T06:18:21.301Z,500.31
2019-05-29T06:19:12.465Z,500.98
2019-05-29T06:20:11.474Z,520.67
2019-05-29T06:21:11.477Z,498.20
2019-05-29T06:22:11.447Z,505.52
2019-05-29T06:23:11.468Z,529.16
2019-05-29T06:24:11.444Z,502.97
2019-05-29T06:25:11.418Z,526.93
2019-05-29T06:26:11.421Z,526.39
2019-05-29T06:27:11.391Z,527.25
2019-05-29T06:28:11.373Z,527.44
2019-05-29T06:29:11.368Z,527.08
2019-05-29T06:30:11.363Z,505.13
2019-05-29T06:31:11.369Z,503.71
2019-05-29T06:32:11.366Z,504.12
2019-05-29T06:33:11.327Z,505.44
2019-05-29T06:34:11.318Z,504.69
2019-05-29T06:35:11.332Z,503.61
2019-05-29T06:36:11.327Z,503.86
2019-05-29T06:37:11.283Z,501.01
2019-05-29T06:38:11.261Z,502.99
2019-05-29T06:39:11.260Z,501.07
2019-05-29T06:40:11.254Z,493.94
2019-05-29T06:41:11.300Z,497.38
2019-05-29T06:42:11.253Z,497.26
2019-05-29T06:43:11.992Z,525.25
2019-05-29T06:44:11.265Z,522.06
2019-05-29T06:45:11.198Z,518.87
2019-05-29T06:46:11.177Z,515.50
2019-05-29T06:47:11.189Z,500.24
2019-05-29T06:48:11.158Z,522.09
2019-05-29T06:49:11.265Z,522.64
2019-05-29T06:50:11.136Z,499.70
2019-05-29T06:51:11.238Z,504.97
2019-05-29T06:52:11.144Z,505.70
2019-05-29T06:53:11.103Z,501.86
2019-05-29T06:54:11.098Z,500.35
2019-05-29T06:55:11.073Z,501.68
2019-05-29T06:56:11.244Z,508.08
2019-05-29T06:57:11.094Z,502.72
2019-05-29T06:58:11.113Z,503.26
2019-05-29T06:59:11.038Z,500.76
2019-05-29T07:00:11.041Z,498.72
2019-05-29T07:01:11.011Z,515.57
2019-05-29T07:02:11.020Z,489.76
2019-05-29T07:03:10.987Z,509.09
2019-05-29T07:04:12.504Z,494.98
2019-05-29T07:05:10.970Z,499.89
2019-05-29T07:06:10.959Z,487.76
2019-05-29T07:07:10.958Z,493.52
2019-05-29T07:08:19.189Z,508.38
2019-05-29T07:09:11.926Z,521.90
2019-05-29T07:10:10.922Z,508.27
2019-05-29T07:11:10.907Z,499.82
2019-05-29T07:12:10.912Z,500.06
2019-05-29T07:13:10.882Z,522.58
2019-05-29T07:14:10.882Z,523.76
2019-05-29T07:15:10.857Z,518.77
2019-05-29T07:16:10.853Z,521.18
2019-05-29T07:17:10.855Z,495.35
2019-05-29T07:18:10.826Z,491.47
2019-05-29T07:19:45.118Z,497.83
2019-05-29T07:20:11.805Z,486.10
2019-05-29T07:21:10.788Z,498.57
2019-05-29T07:22:10.784Z,489.55
2019-05-29T07:23:10.768Z,494.53
2019-05-29T07:24:10.758Z,492.49
2019-05-29T07:25:10.758Z,500.13
2019-05-29T07:26:10.726Z,500.34
2019-05-29T07:27:13.399Z,494.65
2019-05-29T07:28:10.731Z,499.94
2019-05-29T07:29:10.729Z,510.74
2019-05-29T07:30:10.777Z,503.37
2019-05-29T07:31:10.685Z,527.66
2019-05-29T07:32:10.689Z,502.75
2019-05-29T07:33:10.675Z,504.78
2019-05-29T07:34:10.645Z,508.09
2019-05-29T07:35:10.639Z,506.49
2019-05-29T07:36:10.629Z,504.81
2019-05-29T07:37:10.626Z,502.51
2019-05-29T07:38:10.603Z,504.71
2019-05-29T07:39:10.592Z,501.84
2019-05-29T07:40:10.615Z,498.08
2019-05-29T07:41:10.581Z,502.65
2019-05-29T07:42:10.580Z,500.55
2019-05-29T07:43:10.568Z,502.10
2019-05-29T07:44:10.541Z,500.82
2019-05-29T07:45:10.550Z,501.82
2019-05-29T07:46:10.508Z,499.89
2019-05-29T07:47:10.520Z,498.68
2019-05-29T07:48:10.522Z,499.10
2019-05-29T07:49:10.495Z,499.94
2019-05-29T07:50:10.473Z,503.79
2019-05-29T07:51:10.451Z,501.34
2019-05-29T07:52:10.439Z,501.85
2019-05-29T07:53:10.459Z,500.02
2019-05-29T07:54:10.433Z,497.85
2019-05-29T07:55:10.505Z,489.28
2019-05-29T07:56:22.237Z,489.56
2019-05-29T07:57:11.379Z,484.72
2019-05-29T07:58:10.397Z,482.53
2019-05-29T07:59:10.368Z,481.77
2019-05-29T08:00:10.352Z,486.44
2019-05-29T08:01:13.655Z,478.66
2019-05-29T08:02:10.340Z,482.61
2019-05-29T08:03:10.336Z,495.71
2019-05-29T08:04:10.304Z,488.15
2019-05-29T08:05:10.300Z,493.73
2019-05-29T08:06:10.280Z,501.18
2019-05-29T08:07:10.292Z,501.31
2019-05-29T08:08:10.287Z,500.65
2019-05-29T08:09:10.275Z,495.45
2019-05-29T08:10:10.264Z,493.99
2019-05-29T08:11:10.234Z,500.98
2019-05-29T08:12:10.224Z,498.94
2019-05-29T08:13:10.246Z,488.07
2019-05-29T08:14:10.197Z,484.88
2019-05-29T08:15:10.196Z,489.76
2019-05-29T08:16:10.180Z,497.58
2019-05-29T08:17:10.197Z,489.37
2019-05-29T08:18:10.186Z,476.59
2019-05-29T08:19:10.151Z,480.96
2019-05-29T08:20:10.138Z,487.35
2019-05-29T08:21:10.127Z,498.70
2019-05-29T08:22:10.165Z,494.16
2019-05-29T08:23:10.116Z,493.10
2019-05-29T08:24:10.121Z,491.56
2019-05-29T08:25:10.081Z,501.21
2019-05-29T08:26:10.068Z,507.25
2019-05-29T08:27:10.057Z,505.11
2019-05-29T08:28:10.081Z,506.40
2019-05-29T08:29:10.045Z,505.31
2019-05-29T08:30:10.030Z,501.57
2019-05-29T08:31:10.026Z,503.45
2019-05-29T08:32:10.007Z,502.31
2019-05-29T08:33:10.012Z,503.56
2019-05-29T08:34:09.982Z,507.05
2019-05-29T08:35:09.967Z,501.06
2019-05-29T08:36:09.953Z,502.02
2019-05-29T08:37:10.007Z,498.37
2019-05-29T08:38:09.958Z,495.09
2019-05-29T08:39:09.930Z,498.38
2019-05-29T08:40:09.923Z,490.16
2019-05-29T08:41:09.910Z,488.00
2019-05-29T08:42:22.487Z,494.21
2019-05-29T08:43:10.919Z,496.77
2019-05-29T08:44:09.872Z,483.36
2019-05-29T08:45:09.892Z,486.85
2019-05-29T08:46:09.855Z,486.93
2019-05-29T08:47:10.992Z,494.90
2019-05-29T08:48:09.846Z,491.63
2019-05-29T08:49:09.810Z,490.75
2019-05-29T08:50:18.219Z,490.38
2019-05-29T08:51:11.012Z,482.07
2019-05-29T08:52:12.161Z,484.82
2019-05-29T08:53:09.788Z,483.84
2019-05-29T08:54:23.394Z,497.15
2019-05-29T08:55:13.701Z,500.12
2019-05-29T08:56:09.745Z,493.32
2019-05-29T08:57:09.800Z,494.32
2019-05-29T08:58:09.749Z,502.48
2019-05-29T08:59:09.790Z,500.24
2019-05-29T09:00:09.697Z,490.66
2019-05-29T09:01:09.677Z,492.33
2019-05-29T09:02:09.675Z,501.60
2019-05-29T09:03:09.692Z,498.56
2019-05-29T09:04:09.655Z,505.97
2019-05-29T09:05:09.630Z,499.94
2019-05-29T09:06:13.352Z,500.48
2019-05-29T09:07:09.610Z,505.44
2019-05-29T09:08:09.633Z,508.38
2019-05-29T09:09:09.618Z,510.35
2019-05-29T09:10:09.592Z,503.97
2019-05-29T09:11:09.584Z,506.81
2019-05-29T09:12:09.556Z,503.42
2019-05-29T09:13:09.546Z,503.44
2019-05-29T09:14:09.557Z,509.62
2019-05-29T09:15:09.844Z,501.33
2019-05-29T09:16:09.539Z,508.96
2019-05-29T09:17:09.505Z,501.90
2019-05-29T09:18:09.491Z,503.03
2019-05-29T09:19:09.502Z,504.28
2019-05-29T09:20:27.130Z,502.48
2019-05-29T09:21:10.451Z,505.36
2019-05-29T09:22:09.455Z,500.60
2019-05-29T09:23:09.477Z,508.41
2019-05-29T09:24:09.507Z,506.92
2019-05-29T09:25:09.423Z,498.19
2019-05-29T09:26:16.041Z,498.07
2019-05-29T09:27:10.395Z,494.63
2019-05-29T09:28:09.377Z,502.90
2019-05-29T09:29:09.422Z,504.76
2019-05-29T09:30:09.360Z,505.70
2019-05-29T09:31:09.403Z,503.02
2019-05-29T09:32:09.338Z,505.61
2019-05-29T09:33:09.311Z,500.62
2019-05-29T09:34:09.355Z,505.12
2019-05-29T09:35:09.297Z,502.24
2019-05-29T09:36:09.303Z,503.44
2019-05-29T09:37:09.278Z,505.06
2019-05-29T09:38:09.269Z,501.70
2019-05-29T09:39:09.302Z,501.07
2019-05-29T09:40:09.253Z,502.16
2019-05-29T09:41:09.230Z,499.38
2019-05-29T09:42:09.228Z,501.90
2019-05-29T09:43:09.220Z,507.42
2019-05-29T09:44:09.223Z,503.28
2019-05-29T09:45:09.203Z,504.93
2019-05-29T09:46:09.169Z,498.69
2019-05-29T09:47:09.207Z,504.04
2019-05-29T09:48:09.204Z,503.00
2019-05-29T09:49:09.186Z,504.67
2019-05-29T09:50:09.130Z,506.44
2019-05-29T09:51:20.723Z,502.35
2019-05-29T09:52:10.112Z,507.64
2019-05-29T09:53:09.115Z,500.39
2019-05-29T09:54:09.163Z,500.53
2019-05-29T09:55:09.096Z,498.10
2019-05-29T09:56:09.066Z,500.93
2019-05-29T09:57:09.052Z,500.15
2019-05-29T09:58:09.044Z,504.70
2019-05-29T09:59:09.058Z,499.18
2019-05-29T10:00:09.022Z,497.44
2019-05-29T10:01:21.718Z,500.84
2019-05-29T10:02:09.994Z,493.70
2019-05-29T10:03:08.996Z,492.90
2019-05-29T10:04:09.000Z,499.77
2019-05-29T10:05:08.976Z,495.68
2019-05-29T10:06:09.602Z,497.57
2019-05-29T10:07:08.939Z,497.83
2019-05-29T10:08:08.937Z,499.48
2019-05-29T10:09:08.944Z,496.33
2019-05-29T10:10:08.917Z,502.72
2019-05-29T10:11:10.911Z,508.43
2019-05-29T10:12:08.885Z,500.15
2019-05-29T10:13:08.880Z,500.50
2019-05-29T10:14:08.887Z,502.64
2019-05-29T10:15:08.850Z,502.43
2019-05-29T10:16:08.849Z,500.86
2019-05-29T10:17:12.538Z,507.14
2019-05-29T10:18:30.012Z,490.40
2019-05-29T10:19:09.882Z,488.54
2019-05-29T10:20:08.796Z,491.20
2019-05-29T10:21:08.794Z,497.33
2019-05-29T10:22:08.780Z,493.40
2019-05-29T10:23:08.768Z,503.58
2019-05-29T10:24:08.785Z,495.01
2019-05-29T10:25:08.793Z,504.68
2019-05-29T10:26:08.727Z,500.17
2019-05-29T10:27:08.722Z,499.36
2019-05-29T10:28:08.718Z,496.40
2019-05-29T10:29:09.861Z,506.47
2019-05-29T10:30:08.691Z,504.04
2019-05-29T10:31:08.672Z,504.53
2019-05-29T10:32:08.719Z,498.20
2019-05-29T10:33:08.658Z,500.71
2019-05-29T10:34:08.662Z,500.94
2019-05-29T10:35:08.634Z,492.69
2019-05-29T10:36:08.616Z,493.92
2019-05-29T10:37:08.607Z,504.33
2019-05-29T10:38:08.595Z,508.64
2019-05-29T10:39:08.615Z,500.00
2019-05-29T10:40:08.572Z,499.66
2019-05-29T10:41:08.570Z,500.11
2019-05-29T10:42:08.543Z,499.09
2019-05-29T10:43:08.544Z,495.17
2019-05-29T10:44:12.447Z,501.44
2019-05-29T10:45:08.518Z,491.92
2019-05-29T10:46:08.525Z,505.96
2019-05-29T10:47:08.516Z,507.58
2019-05-29T10:48:08.485Z,500.02
2019-05-29T10:49:08.490Z,500.48
2019-05-29T10:50:08.505Z,493.47
2019-05-29T10:51:08.471Z,504.52
2019-05-29T10:52:16.129Z,492.16
2019-05-29T10:53:09.423Z,490.25
2019-05-29T10:54:08.455Z,504.04
2019-05-29T10:55:08.407Z,493.69
2019-05-29T10:56:08.403Z,494.72
2019-05-29T10:57:08.392Z,496.79
2019-05-29T10:58:08.371Z,505.26
2019-05-29T10:59:08.390Z,508.01
2019-05-29T11:00:08.372Z,496.57
2019-05-29T11:01:08.384Z,498.94
2019-05-29T11:02:08.329Z,504.49
2019-05-29T11:03:08.317Z,498.67
2019-05-29T11:04:08.339Z,501.76
2019-05-29T11:05:08.308Z,493.41
2019-05-29T11:06:08.281Z,490.65
2019-05-29T11:07:08.275Z,497.68
2019-05-29T11:08:08.273Z,502.62
2019-05-29T11:09:08.284Z,506.69
2019-05-29T11:10:08.242Z,499.46
2019-05-29T11:11:08.228Z,502.45
2019-05-29T11:12:08.255Z,503.93
2019-05-29T11:13:08.203Z,502.84
2019-05-29T11:14:08.204Z,498.54
2019-05-29T11:15:20.630Z,497.36
2019-05-29T11:16:09.168Z,502.88
2019-05-29T11:17:08.167Z,495.64
2019-05-29T11:18:08.168Z,495.85
2019-05-29T11:19:08.168Z,499.35
2019-05-29T11:20:08.636Z,496.49
2019-05-29T11:21:08.132Z,512.13
2019-05-29T11:22:25.151Z,512.57
2019-05-29T11:23:09.100Z,500.42
2019-05-29T11:24:08.088Z,505.17
2019-05-29T11:25:21.685Z,499.70
2019-05-29T11:26:09.061Z,498.64
2019-05-29T11:27:08.058Z,503.57
2019-05-29T11:28:08.036Z,498.67
2019-05-29T11:29:08.038Z,499.65
2019-05-29T11:30:08.049Z,504.42
2019-05-29T11:31:08.018Z,503.07
2019-05-29T11:32:08.021Z,500.67
2019-05-29T11:33:08.137Z,507.41
2019-05-29T11:34:07.973Z,493.71
2019-05-29T11:35:08.026Z,495.13
2019-05-29T11:36:12.993Z,499.96
2019-05-29T11:37:08.948Z,498.19
2019-05-29T11:38:07.937Z,503.83
2019-05-29T11:39:07.919Z,503.13
2019-05-29T11:40:07.945Z,501.20
2019-05-29T11:41:25.167Z,497.35
2019-05-29T11:42:08.887Z,506.73
2019-05-29T11:43:07.884Z,497.76
2019-05-29T11:44:07.870Z,500.85
2019-05-29T11:45:07.883Z,499.09
2019-05-29T11:46:07.848Z,505.37
2019-05-29T11:47:07.830Z,502.90
2019-05-29T11:48:07.840Z,491.76
2019-05-29T11:49:07.814Z,490.60
2019-05-29T11:50:18.762Z,497.86
2019-05-29T11:51:08.784Z,499.57
2019-05-29T11:52:23.567Z,501.34
2019-05-29T11:53:08.767Z,494.27
2019-05-29T11:54:07.760Z,516.26
2019-05-29T11:55:08.455Z,510.69
2019-05-29T11:56:07.730Z,504.23
2019-05-29T11:57:07.749Z,505.36
2019-05-29T11:58:07.730Z,498.58
2019-05-29T11:59:07.706Z,504.92
2019-05-29T12:00:19.052Z,507.86
2019-05-29T12:01:08.668Z,501.19
2019-05-29T12:02:07.669Z,498.71
2019-05-29T12:03:07.671Z,497.09
2019-05-29T12:04:24.292Z,510.27
2019-05-29T12:05:08.649Z,504.18
2019-05-29T12:06:07.835Z,506.74
2019-05-29T12:07:07.608Z,501.05
2019-05-29T12:08:07.601Z,499.17
2019-05-29T12:09:07.576Z,511.10
2019-05-29T12:10:07.924Z,499.12
2019-05-29T12:11:07.576Z,506.96
2019-05-29T12:12:07.557Z,494.99
2019-05-29T12:13:07.539Z,500.48
2019-05-29T12:14:07.524Z,503.18
2019-05-29T12:15:13.463Z,504.46
2019-05-29T12:16:08.524Z,494.76
2019-05-29T12:17:07.517Z,503.83
2019-05-29T12:18:22.689Z,496.25
2019-05-29T12:19:08.472Z,494.06
2019-05-29T12:20:26.380Z,484.66
2019-05-29T12:21:08.452Z,494.78
2019-05-29T12:22:07.447Z,497.10
2019-05-29T12:23:22.850Z,499.78
2019-05-29T12:24:08.433Z,496.71
2019-05-29T12:25:07.439Z,499.46
2019-05-29T12:26:21.961Z,505.50
2019-05-29T12:27:08.394Z,504.46
2019-05-29T12:28:07.451Z,492.32